Time;durP1;ratioP1;P1;durP2;ratioP2;P2;SDS_P1;SDS_P2;PMS_P1;PMS_P2;Temp;Humidity;BMP_temperature;BMP_pressure;BME280_temperature;BME280_humidity;BME280_pressure;Samples;Min_cycle;Max_cycle;Signal;HPM_P1;HPM_P2
2024/03/29 00:00:20;;;;;;;1.52;0.80;;;;;;;3.83;100.00;94604.28;1031314;28;20396;-70
2024/03/29 00:00:51;;;;;;;0.52;0.50;;;;;;;3.82;100.00;94607.88;1039551;28;20403;-70
2024/03/29 00:01:21;;;;;;;1.35;0.85;;;;;;;3.81;100.00;94608.13;1039412;28;20099;-70
2024/03/29 00:01:52;;;;;;;0.70;0.70;;;;;;;3.77;100.00;94605.25;1035246;28;20464;-70
2024/03/29 00:02:22;;;;;;;1.65;0.77;;;;;;;3.71;100.00;94601.06;1031072;28;20018;-71
2024/03/29 00:02:52;;;;;;;2.30;0.80;;;;;;;3.78;100.00;94606.81;1031222;28;20155;-70
2024/03/29 00:03:23;;;;;;;1.15;0.55;;;;;;;3.74;100.00;94598.75;1035563;28;20033;-70
2024/03/29 00:03:54;;;;;;;2.38;0.90;;;;;;;3.72;100.00;94598.22;1038985;28;20022;-70
2024/03/29 00:04:24;;;;;;;1.92;0.60;;;;;;;3.73;100.00;94609.38;1039638;28;20075;-70
2024/03/29 00:04:55;;;;;;;0.98;0.60;;;;;;;3.72;100.00;94607.78;1039967;28;20052;-70
2024/03/29 00:05:25;;;;;;;1.00;0.50;;;;;;;3.71;100.00;94601.06;1039213;28;20009;-69
2024/03/29 00:05:56;;;;;;;1.25;0.85;;;;;;;3.68;100.00;94598.94;1039172;28;20510;-70
2024/03/29 00:06:26;;;;;;;1.65;0.65;;;;;;;3.68;100.00;94598.94;1039274;28;20546;-69
2024/03/29 00:06:57;;;;;;;0.57;0.50;;;;;;;3.65;100.00;94597.63;1035138;28;20022;-70
2024/03/29 00:07:27;;;;;;;1.05;0.60;;;;;;;3.64;100.00;94597.88;1035314;28;20018;-70
2024/03/29 00:07:58;;;;;;;1.23;0.70;;;;;;;3.61;100.00;94600.97;1034997;28;20025;-70
2024/03/29 00:08:28;;;;;;;1.67;0.55;;;;;;;3.59;100.00;94603.00;1031118;28;20018;-70
2024/03/29 00:08:59;;;;;;;1.73;0.60;;;;;;;3.60;100.00;94607.19;1030719;28;20022;-70
2024/03/29 00:09:30;;;;;;;1.35;0.43;;;;;;;3.57;100.00;94605.88;1031032;28;20468;-70
2024/03/29 00:10:00;;;;;;;0.60;0.57;;;;;;;3.57;100.00;94605.09;1031328;28;20329;-70
2024/03/29 00:10:31;;;;;;;0.80;0.65;;;;;;;3.54;100.00;94601.16;1035123;28;20021;-69
2024/03/29 00:11:02;;;;;;;0.73;0.45;;;;;;;3.54;100.00;94607.13;1031149;28;20023;-70
2024/03/29 00:11:33;;;;;;;0.70;0.60;;;;;;;3.53;100.00;94605.56;1031713;28;20010;-70
2024/03/29 00:12:04;;;;;;;1.00;0.57;;;;;;;3.50;100.00;94600.88;1031223;28;20261;-70
2024/03/29 00:12:34;;;;;;;0.80;0.40;;;;;;;3.51;100.00;94606.84;1028141;28;20507;-71
2024/03/29 00:13:05;;;;;;;0.47;0.43;;;;;;;3.51;100.00;94612.81;1031413;28;20038;-69
2024/03/29 00:13:35;;;;;;;0.93;0.75;;;;;;;3.47;100.00;94605.78;1031098;28;20018;-70
2024/03/29 00:14:05;;;;;;;1.05;0.60;;;;;;;3.52;100.00;94614.41;1028734;28;20019;-70
2024/03/29 00:14:36;;;;;;;0.73;0.47;;;;;;;3.54;100.00;94611.53;1035163;28;20022;-70
2024/03/29 00:15:07;;;;;;;1.25;0.55;;;;;;;3.54;100.00;94606.34;1035149;28;20033;-71
2024/03/29 00:15:38;;;;;;;2.15;0.50;;;;;;;3.55;100.00;94607.91;1031862;28;20106;-70
2024/03/29 00:16:08;;;;;;;0.80;0.68;;;;;;;3.50;100.00;94611.25;1035097;28;20804;-70
2024/03/29 00:16:39;;;;;;;1.13;0.57;;;;;;;3.53;100.00;94602.22;1030927;28;20026;-70
2024/03/29 00:17:09;;;;;;;1.52;0.50;;;;;;;3.53;100.00;94608.16;1031470;28;20105;-70
2024/03/29 00:17:40;;;;;;;1.08;0.75;;;;;;;3.53;100.00;94613.34;1035081;28;20026;-70
2024/03/29 00:18:10;;;;;;;1.63;0.90;;;;;;;3.52;100.00;94601.44;1039079;28;20017;-70
2024/03/29 00:18:40;;;;;;;1.30;0.90;;;;;;;3.51;100.00;94607.63;1037847;28;20040;-70
2024/03/29 00:19:11;;;;;;;2.85;1.15;;;;;;;3.52;100.00;94609.22;1030782;28;20034;-70
2024/03/29 00:19:41;;;;;;;1.25;0.90;;;;;;;3.53;100.00;94612.59;1031329;28;20041;-70
2024/03/29 00:20:12;;;;;;;1.15;0.70;;;;;;;3.48;100.00;94597.75;1031177;28;20035;-70
2024/03/29 00:20:42;;;;;;;0.70;0.38;;;;;;;3.53;100.00;94604.81;1026872;28;20167;-70
2024/03/29 00:21:14;;;;;;;0.60;0.60;;;;;;;3.54;100.00;94609.72;1031330;28;20019;-70
2024/03/29 00:21:44;;;;;;;1.52;0.75;;;;;;;3.54;100.00;94603.75;1030976;28;20140;-69
2024/03/29 00:22:14;;;;;;;1.25;0.60;;;;;;;3.55;100.00;94602.72;1031223;28;20308;-71
2024/03/29 00:22:45;;;;;;;0.52;0.40;;;;;;;3.57;100.00;94605.09;1031056;28;20023;-70
2024/03/29 00:23:15;;;;;;;3.90;0.90;;;;;;;3.54;100.00;94604.53;1035044;28;20026;-70
2024/03/29 00:23:46;;;;;;;2.13;0.50;;;;;;;3.54;100.00;94599.34;1031206;28;20447;-70
2024/03/29 00:24:17;;;;;;;0.93;0.75;;;;;;;3.54;100.00;94604.53;1027136;28;20105;-69
2024/03/29 00:24:47;;;;;;;0.93;0.70;;;;;;;3.55;100.00;94602.72;1035990;28;20288;-70
2024/03/29 00:25:18;;;;;;;0.95;0.68;;;;;;;3.54;100.00;94601.94;1036061;28;20034;-70
2024/03/29 00:25:48;;;;;;;1.30;0.50;;;;;;;3.56;100.00;94603.53;1031311;28;20038;-70
2024/03/29 00:26:19;;;;;;;0.98;0.70;;;;;;;3.54;100.00;94607.13;1035655;28;20038;-70
2024/03/29 00:26:49;;;;;;;1.45;0.70;;;;;;;3.52;100.00;94598.03;1035666;28;20476;-70
2024/03/29 00:27:20;;;;;;;1.58;0.85;;;;;;;3.53;100.00;94604.81;1027313;28;20022;-70
2024/03/29 00:27:50;;;;;;;1.00;0.63;;;;;;;3.54;100.00;94601.16;1035138;28;20030;-70
2024/03/29 00:28:21;;;;;;;1.83;0.77;;;;;;;3.53;100.00;94600.38;1034993;28;20117;-70
2024/03/29 00:28:51;;;;;;;0.52;0.50;;;;;;;3.46;100.00;94584.25;1030592;28;20065;-70
2024/03/29 00:29:22;;;;;;;2.50;0.60;;;;;;;3.52;100.00;94598.03;1035249;28;20022;-69
2024/03/29 00:29:53;;;;;;;1.20;0.70;;;;;;;3.52;100.00;94606.63;1031107;28;20055;-70
2024/03/29 00:30:23;;;;;;;1.15;0.80;;;;;;;3.53;100.00;94605.56;1027114;28;20034;-70
2024/03/29 00:30:54;;;;;;;1.30;0.70;;;;;;;3.57;100.00;94602.50;1031128;28;20030;-70
2024/03/29 00:31:24;;;;;;;1.73;0.80;;;;;;;3.57;100.00;94612.88;1035141;28;20126;-70
2024/03/29 00:31:55;;;;;;;1.15;0.68;;;;;;;3.49;100.00;94596.72;1039458;28;20075;-70
2024/03/29 00:32:25;;;;;;;0.95;0.60;;;;;;;3.55;100.00;94618.28;1035046;28;20032;-70
2024/03/29 00:32:56;;;;;;;0.93;0.70;;;;;;;3.54;100.00;94620.09;1030767;28;20026;-70
2024/03/29 00:33:26;;;;;;;0.75;0.70;;;;;;;3.48;100.00;94608.09;1031246;28;20034;-70
2024/03/29 00:33:57;;;;;;;0.73;0.60;;;;;;;3.48;100.00;94608.09;1027322;28;20515;-70
2024/03/29 00:34:27;;;;;;;0.77;0.60;;;;;;;3.56;100.00;94619.09;1026841;28;20019;-70
2024/03/29 00:34:58;;;;;;;1.65;0.40;;;;;;;3.57;100.00;94620.66;1031271;28;20089;-70
2024/03/29 00:35:28;;;;;;;0.80;0.60;;;;;;;3.54;100.00;94617.50;1030923;28;20026;-70
2024/03/29 00:35:59;;;;;;;0.50;0.30;;;;;;;3.59;100.00;94618.56;1031376;28;20778;-70
2024/03/29 00:36:29;;;;;;;0.77;0.45;;;;;;;3.57;100.00;94620.66;1030962;28;20038;-71
2024/03/29 00:36:59;;;;;;;0.52;0.52;;;;;;;3.57;100.00;94623.25;1031035;28;20030;-70
2024/03/29 00:37:30;;;;;;;1.23;0.40;;;;;;;3.57;100.00;94620.66;1035335;28;20569;-70
2024/03/29 00:38:00;;;;;;;0.65;0.50;;;;;;;3.59;100.00;94631.53;1039234;28;20025;-71
2024/03/29 00:38:31;;;;;;;0.35;0.35;;;;;;;3.58;100.00;94632.56;1039500;28;20072;-70
2024/03/29 00:39:01;;;;;;;2.67;0.57;;;;;;;3.60;100.00;94628.72;1039112;28;20022;-70
2024/03/29 00:39:32;;;;;;;1.60;0.50;;;;;;;3.60;100.00;94641.69;1039137;28;20028;-70
2024/03/29 00:40:02;;;;;;;0.57;0.43;;;;;;;3.61;100.00;94637.28;1039762;28;20552;-70
2024/03/29 00:40:33;;;;;;;0.30;0.30;;;;;;;3.63;100.00;94637.81;1039241;28;20028;-71
2024/03/29 00:41:03;;;;;;;0.50;0.40;;;;;;;3.63;100.00;94630.03;1038973;28;20422;-70
2024/03/29 00:41:34;;;;;;;0.38;0.30;;;;;;;3.64;100.00;94631.59;1039082;28;20083;-70
2024/03/29 00:42:08;;;;;;;1.00;0.43;;;;;;;3.65;100.00;94628.75;1038996;28;20045;-70
2024/03/29 00:42:38;;;;;;;0.43;0.35;;;;;;;3.68;100.00;94622.28;1039035;28;20025;-70
2024/03/29 00:43:10;;;;;;;1.33;0.50;;;;;;;3.69;100.00;94616.88;1039253;28;20261;-70
2024/03/29 00:43:40;;;;;;;0.57;0.38;;;;;;;3.70;100.00;94615.84;1034117;28;20037;-70
2024/03/29 00:44:10;;;;;;;3.40;0.60;;;;;;;3.71;100.00;94616.63;1031961;28;21027;-70
2024/03/29 00:44:42;;;;;;;0.95;0.40;;;;;;;3.72;100.00;94623.34;1030940;28;20077;-70
2024/03/29 00:45:12;;;;;;;1.30;0.55;;;;;;;3.73;100.00;94620.53;1031173;28;20018;-70
2024/03/29 00:45:43;;;;;;;0.40;0.40;;;;;;;3.73;100.00;94611.97;1031064;28;20747;-70
2024/03/29 00:46:13;;;;;;;2.58;0.60;;;;;;;3.72;100.00;94612.97;1026804;28;20432;-70
2024/03/29 00:46:43;;;;;;;1.05;0.50;;;;;;;3.74;100.00;94610.94;1030966;28;20023;-70
2024/03/29 00:47:14;;;;;;;1.42;0.50;;;;;;;3.73;100.00;94612.75;1034375;28;20022;-70
2024/03/29 00:47:44;;;;;;;1.92;0.50;;;;;;;3.73;100.00;94614.56;1034792;28;20026;-70
2024/03/29 00:48:17;;;;;;;0.80;0.35;;;;;;;3.74;100.00;94611.72;1034986;28;20570;-70
2024/03/29 00:48:47;;;;;;;0.77;0.40;;;;;;;3.74;100.00;94605.75;1038421;28;20021;-70
2024/03/29 00:49:18;;;;;;;0.30;0.22;;;;;;;3.76;100.00;94603.69;1034845;28;20275;-71
2024/03/29 00:49:49;;;;;;;1.40;0.50;;;;;;;3.75;100.00;94597.69;1035001;28;20117;-70
2024/03/29 00:50:20;;;;;;;0.70;0.30;;;;;;;3.75;100.00;94596.94;1031324;28;20671;-70
2024/03/29 00:50:50;;;;;;;0.80;0.30;;;;;;;3.75;100.00;94589.16;1030816;28;20038;-70
2024/03/29 00:51:21;;;;;;;0.98;0.50;;;;;;;3.75;100.00;94587.31;1027129;28;20062;-70
2024/03/29 00:51:51;;;;;;;0.30;0.30;;;;;;;3.74;100.00;94588.38;1030861;28;20022;-70
2024/03/29 00:52:21;;;;;;;2.35;0.40;;;;;;;3.72;100.00;94587.03;1035332;28;20029;-70
2024/03/29 00:52:52;;;;;;;0.30;0.30;;;;;;;3.72;100.00;94587.03;1035042;28;20025;-70
2024/03/29 00:53:22;;;;;;;0.55;0.40;;;;;;;3.73;100.00;94586.03;1038831;28;20517;-70
2024/03/29 00:53:54;;;;;;;0.68;0.40;;;;;;;3.72;100.00;94584.44;1030918;28;20113;-70
2024/03/29 00:54:25;;;;;;;0.73;0.32;;;;;;;3.70;100.00;94589.13;1031163;28;20570;-70
2024/03/29 00:54:55;;;;;;;0.70;0.50;;;;;;;3.69;100.00;94582.34;1034683;28;20264;-70
2024/03/29 00:55:26;;;;;;;1.17;0.40;;;;;;;3.67;100.00;94581.84;1035377;28;20498;-71
2024/03/29 00:55:56;;;;;;;0.30;0.28;;;;;;;3.67;100.00;94584.41;1034719;28;20399;-70
2024/03/29 00:56:27;;;;;;;0.40;0.35;;;;;;;3.62;100.00;94577.41;1030921;28;20038;-70
2024/03/29 00:56:57;;;;;;;0.65;0.63;;;;;;;3.61;100.00;94577.63;1030736;28;20049;-70
2024/03/29 00:57:28;;;;;;;1.38;0.40;;;;;;;3.60;100.00;94582.03;1030995;28;20030;-70
2024/03/29 00:57:58;;;;;;;0.35;0.30;;;;;;;3.59;100.00;94583.06;1035061;28;20053;-70
2024/03/29 00:58:29;;;;;;;0.90;0.40;;;;;;;3.56;100.00;94569.81;1038927;28;20033;-70
2024/03/29 00:58:59;;;;;;;0.30;0.30;;;;;;;3.57;100.00;94577.34;1034254;28;20028;-70
2024/03/29 00:59:30;;;;;;;0.30;0.30;;;;;;;3.59;100.00;94579.66;1035199;28;20029;-70
2024/03/29 01:00:00;;;;;;;2.42;0.52;;;;;;;3.58;100.00;94575.53;1034886;28;20255;-70
2024/03/29 01:00:31;;;;;;;0.57;0.30;;;;;;;3.54;100.00;94576.00;1035109;28;20049;-71
2024/03/29 01:01:01;;;;;;;0.47;0.20;;;;;;;3.56;100.00;94575.00;1034935;28;20030;-70
2024/03/29 01:01:32;;;;;;;0.75;0.38;;;;;;;3.55;100.00;94569.00;1030881;28;20061;-70
2024/03/29 01:02:02;;;;;;;1.75;0.38;;;;;;;3.53;100.00;94571.88;1031698;28;20560;-70
2024/03/29 01:02:33;;;;;;;0.40;0.38;;;;;;;3.55;100.00;94569.00;1034812;28;20053;-70
2024/03/29 01:03:04;;;;;;;1.00;0.50;;;;;;;3.53;100.00;94571.88;1026929;28;20037;-70
2024/03/29 01:03:34;;;;;;;2.65;0.30;;;;;;;3.56;100.00;94572.41;1023064;28;20102;-70
2024/03/29 01:04:05;;;;;;;0.82;0.32;;;;;;;3.53;100.00;94571.88;1022276;29;20042;-69
2024/03/29 01:04:35;;;;;;;0.82;0.40;;;;;;;3.53;100.00;94574.47;1022859;28;20091;-70
2024/03/29 01:05:06;;;;;;;1.05;0.50;;;;;;;3.47;100.00;94567.66;1027086;28;20038;-70
2024/03/29 01:05:38;;;;;;;0.73;0.50;;;;;;;3.52;100.00;94572.09;1030909;28;20033;-70
2024/03/29 01:06:08;;;;;;;0.82;0.55;;;;;;;3.50;100.00;94572.34;1035150;28;20029;-70
2024/03/29 01:06:40;;;;;;;0.57;0.52;;;;;;;3.49;100.00;94570.81;1034758;28;20276;-71
2024/03/29 01:07:10;;;;;;;0.70;0.52;;;;;;;3.47;100.00;94570.25;1035178;28;20443;-70
2024/03/29 01:07:41;;;;;;;1.27;0.50;;;;;;;3.42;100.00;94567.63;1035085;28;20319;-70
2024/03/29 01:08:11;;;;;;;1.45;0.57;;;;;;;3.45;100.00;94572.28;1026693;28;20049;-70
2024/03/29 01:08:42;;;;;;;1.98;0.75;;;;;;;3.42;100.00;94569.41;1026481;28;20499;-70
2024/03/29 01:09:13;;;;;;;1.00;0.65;;;;;;;3.40;100.00;94571.50;1026582;28;20039;-70
2024/03/29 01:09:43;;;;;;;0.98;0.70;;;;;;;3.41;100.00;94570.44;1031087;28;20071;-70
2024/03/29 01:10:14;;;;;;;3.63;0.80;;;;;;;3.23;100.00;94543.88;1031002;28;20030;-70
2024/03/29 01:10:44;;;;;;;1.15;0.70;;;;;;;3.39;100.00;94564.75;1030670;28;20034;-70
2024/03/29 01:11:15;;;;;;;1.85;0.77;;;;;;;3.35;100.00;94555.88;1034818;28;20018;-70
2024/03/29 01:11:45;;;;;;;1.15;0.57;;;;;;;3.37;100.00;94564.97;1030755;28;20042;-70
2024/03/29 01:12:16;;;;;;;1.52;0.73;;;;;;;3.37;100.00;94559.78;1030609;28;20076;-70
2024/03/29 01:12:46;;;;;;;1.20;0.70;;;;;;;3.36;100.00;94557.47;1030919;28;20105;-70
2024/03/29 01:13:18;;;;;;;0.60;0.50;;;;;;;3.35;100.00;94556.66;1030886;28;20488;-71
2024/03/29 01:13:49;;;;;;;1.17;0.57;;;;;;;3.34;100.00;94557.69;1030767;28;20057;-70
2024/03/29 01:14:19;;;;;;;0.70;0.50;;;;;;;3.27;100.00;94544.16;1034581;28;20827;-70
2024/03/29 01:14:50;;;;;;;0.50;0.50;;;;;;;3.32;100.00;94559.75;1026749;28;20031;-70
2024/03/29 01:15:21;;;;;;;2.60;0.43;;;;;;;3.31;100.00;94545.22;1026560;28;20034;-70
2024/03/29 01:15:51;;;;;;;0.70;0.47;;;;;;;3.31;100.00;94546.00;1030924;28;20277;-70
2024/03/29 01:16:22;;;;;;;1.65;0.70;;;;;;;3.30;100.00;94541.06;1031083;28;20019;-69
2024/03/29 01:16:53;;;;;;;1.55;0.88;;;;;;;3.30;100.00;94541.84;1038753;28;20518;-70
2024/03/29 01:17:23;;;;;;;2.05;0.50;;;;;;;3.31;100.00;94545.22;1034966;28;20018;-70
2024/03/29 01:17:54;;;;;;;0.75;0.65;;;;;;;3.28;100.00;94540.53;1026600;28;20074;-70
2024/03/29 01:18:24;;;;;;;1.33;0.70;;;;;;;3.28;100.00;94537.94;1022971;29;20522;-70
2024/03/29 01:18:55;;;;;;;1.13;0.70;;;;;;;3.33;100.00;94537.22;1021210;28;20127;-69
2024/03/29 01:19:26;;;;;;;0.88;0.60;;;;;;;3.32;100.00;94541.63;1026803;28;20045;-69
2024/03/29 01:19:56;;;;;;;1.35;0.70;;;;;;;3.33;100.00;94532.81;1031223;28;20492;-71
2024/03/29 01:20:26;;;;;;;1.13;0.90;;;;;;;3.31;100.00;94529.66;1030624;28;20026;-70
2024/03/29 01:20:57;;;;;;;1.23;0.55;;;;;;;3.29;100.00;94527.34;1030768;28;20065;-69
2024/03/29 01:21:27;;;;;;;0.70;0.50;;;;;;;3.26;100.00;94527.81;1030697;28;20026;-70
2024/03/29 01:21:58;;;;;;;1.23;0.50;;;;;;;3.26;100.00;94527.03;1026342;28;20031;-69
2024/03/29 01:22:28;;;;;;;0.77;0.77;;;;;;;3.25;100.00;94515.09;1030675;28;20117;-70
2024/03/29 01:22:59;;;;;;;0.35;0.30;;;;;;;3.29;100.00;94516.19;1030779;28;20041;-69
2024/03/29 01:23:29;;;;;;;2.17;0.60;;;;;;;3.33;100.00;94511.28;1030667;28;20132;-70
2024/03/29 01:24:00;;;;;;;0.40;0.40;;;;;;;3.31;100.00;94514.09;1034204;28;20770;-70
2024/03/29 01:24:30;;;;;;;0.90;0.55;;;;;;;3.28;100.00;94509.41;1026573;28;20065;-69
2024/03/29 01:25:03;;;;;;;0.77;0.43;;;;;;;3.28;100.00;94512.00;1023112;29;20539;-69
2024/03/29 01:25:33;;;;;;;1.45;0.55;;;;;;;3.26;100.00;94507.09;1018597;29;20024;-70
2024/03/29 01:26:04;;;;;;;1.13;0.57;;;;;;;3.24;100.00;94506.53;1025385;28;20298;-69
2024/03/29 01:26:35;;;;;;;0.50;0.50;;;;;;;3.24;100.00;94508.34;1027927;28;20423;-70
2024/03/29 01:27:06;;;;;;;0.88;0.40;;;;;;;3.25;100.00;94509.91;1031233;28;20033;-70
2024/03/29 01:27:37;;;;;;;0.75;0.50;;;;;;;3.24;100.00;94510.94;1034403;28;20021;-70
2024/03/29 01:28:07;;;;;;;2.05;0.47;;;;;;;3.26;100.00;94517.44;1031227;28;20262;-69
2024/03/29 01:28:38;;;;;;;0.60;0.35;;;;;;;3.19;100.00;94510.91;1034369;28;20512;-69
2024/03/29 01:29:08;;;;;;;0.43;0.40;;;;;;;3.25;100.00;94517.69;1030889;28;20400;-70
2024/03/29 01:29:38;;;;;;;1.17;0.63;;;;;;;3.26;100.00;94516.69;1026586;28;20027;-70
2024/03/29 01:30:09;;;;;;;0.52;0.50;;;;;;;3.28;100.00;94512.00;1026788;28;20105;-70
2024/03/29 01:30:40;;;;;;;0.55;0.40;;;;;;;3.26;100.00;94514.09;1027114;28;20041;-69
2024/03/29 01:31:11;;;;;;;1.58;0.60;;;;;;;3.23;100.00;94512.75;1030736;28;20075;-70
2024/03/29 01:31:42;;;;;;;1.08;0.75;;;;;;;3.19;100.00;94503.13;1026659;28;20495;-70
2024/03/29 01:32:12;;;;;;;1.50;0.40;;;;;;;3.21;100.00;94519.22;1019082;29;20256;-70
2024/03/29 01:32:43;;;;;;;2.28;0.50;;;;;;;3.23;100.00;94512.75;1018965;29;20032;-70
2024/03/29 01:33:13;;;;;;;0.80;0.45;;;;;;;3.20;100.00;94513.25;1019349;28;20450;-70
2024/03/29 01:33:44;;;;;;;0.75;0.60;;;;;;;3.18;100.00;94519.69;1026821;28;20129;-70
2024/03/29 01:34:14;;;;;;;0.80;0.50;;;;;;;3.16;100.00;94511.41;1034750;28;20022;-70
2024/03/29 01:34:44;;;;;;;0.73;0.40;;;;;;;3.14;100.00;94510.84;1026916;28;20041;-69
2024/03/29 01:35:15;;;;;;;0.40;0.35;;;;;;;3.13;100.00;94504.13;1030846;28;20019;-70
2024/03/29 01:35:46;;;;;;;0.77;0.43;;;;;;;3.15;100.00;94502.81;1026547;28;20023;-70
2024/03/29 01:36:16;;;;;;;0.80;0.50;;;;;;;3.16;100.00;94511.41;1030943;28;20564;-71
2024/03/29 01:36:46;;;;;;;0.63;0.63;;;;;;;3.15;100.00;94515.00;1034848;28;20022;-71
2024/03/29 01:37:17;;;;;;;0.93;0.40;;;;;;;3.12;100.00;94511.13;1035096;28;20119;-70
2024/03/29 01:37:47;;;;;;;1.15;0.30;;;;;;;3.09;100.00;94518.59;1030752;28;20034;-70
2024/03/29 01:38:18;;;;;;;0.80;0.45;;;;;;;3.03;100.00;94504.81;1030604;28;20041;-70
2024/03/29 01:38:51;;;;;;;0.38;0.32;;;;;;;3.07;100.00;94513.66;1026602;28;20072;-70
2024/03/29 01:39:26;;;;;;;1.50;0.50;;;;;;;3.04;100.00;94514.13;1030765;28;20026;-70
2024/03/29 01:39:57;;;;;;;0.30;0.30;;;;;;;3.04;100.00;94504.53;1026967;28;20286;-70
2024/03/29 01:40:27;;;;;;;0.85;0.50;;;;;;;3.02;100.00;94509.22;1030040;28;20286;-70
2024/03/29 01:40:58;;;;;;;2.47;0.52;;;;;;;3.02;100.00;94505.84;1034719;28;20435;-69
2024/03/29 01:41:28;;;;;;;3.58;0.60;;;;;;;2.98;100.00;94500.34;1028771;28;20022;-69
2024/03/29 01:41:58;;;;;;;1.75;0.70;;;;;;;2.97;100.00;94514.34;1030807;28;20468;-70
2024/03/29 01:42:29;;;;;;;0.75;0.40;;;;;;;2.95;100.00;94506.03;1030579;28;20093;-70
2024/03/29 01:43:00;;;;;;;0.55;0.40;;;;;;;2.92;100.00;94505.72;1028971;28;20035;-70
2024/03/29 01:43:31;;;;;;;0.50;0.40;;;;;;;2.88;100.00;94510.59;1038881;28;20167;-70
2024/03/29 01:44:01;;;;;;;0.60;0.50;;;;;;;2.87;100.00;94514.22;1034727;28;20273;-70
2024/03/29 01:44:32;;;;;;;0.55;0.30;;;;;;;2.82;100.00;94509.03;1039340;28;20133;-69
2024/03/29 01:45:03;;;;;;;1.05;0.30;;;;;;;2.83;100.00;94510.56;1034782;28;20551;-70
2024/03/29 01:45:33;;;;;;;0.68;0.50;;;;;;;2.80;100.00;94508.47;1031310;28;20034;-70
2024/03/29 01:46:06;;;;;;;0.52;0.40;;;;;;;2.76;100.00;94507.41;1030337;28;20022;-70
2024/03/29 01:46:36;;;;;;;1.20;0.40;;;;;;;2.67;100.00;94493.31;1027012;28;20015;-70
2024/03/29 01:47:07;;;;;;;2.33;0.40;;;;;;;2.76;100.00;94504.81;1018580;29;20278;-69
2024/03/29 01:47:38;;;;;;;0.43;0.40;;;;;;;2.77;100.00;94506.38;1022527;29;20020;-70
2024/03/29 01:48:09;;;;;;;1.05;0.57;;;;;;;2.74;100.00;94504.25;1022457;29;20023;-69
2024/03/29 01:48:39;;;;;;;0.25;0.25;;;;;;;2.64;100.00;94504.94;1026246;28;20031;-69
2024/03/29 01:49:09;;;;;;;0.52;0.32;;;;;;;2.71;100.00;94507.34;1026679;28;20266;-70
2024/03/29 01:49:40;;;;;;;0.93;0.47;;;;;;;2.64;100.00;94504.16;1018951;29;20034;-70
2024/03/29 01:50:10;;;;;;;1.08;0.30;;;;;;;2.68;100.00;94510.41;1026697;28;20602;-69
2024/03/29 01:50:41;;;;;;;1.00;0.50;;;;;;;2.67;100.00;94511.44;1018741;29;20024;-70
2024/03/29 01:51:13;;;;;;;0.45;0.40;;;;;;;2.62;100.00;94514.00;1026335;28;20026;-70
2024/03/29 01:51:44;;;;;;;0.80;0.60;;;;;;;2.59;100.00;94518.63;1026257;28;20034;-70
2024/03/29 01:52:15;;;;;;;0.40;0.40;;;;;;;2.54;100.00;94508.19;1023436;28;20267;-70
2024/03/29 01:52:45;;;;;;;1.10;0.50;;;;;;;2.60;100.00;94514.22;1026724;28;20019;-70
2024/03/29 01:53:16;;;;;;;0.32;0.32;;;;;;;2.58;100.00;94522.25;1028941;28;20692;-70
2024/03/29 01:53:46;;;;;;;3.97;0.50;;;;;;;2.56;100.00;94519.09;1027001;28;20092;-70
2024/03/29 01:54:17;;;;;;;0.60;0.50;;;;;;;2.51;100.00;94508.66;1022751;28;20027;-70
2024/03/29 01:54:47;;;;;;;0.57;0.43;;;;;;;2.50;100.00;94509.69;1026742;28;20030;-71
2024/03/29 01:55:18;;;;;;;1.33;0.57;;;;;;;2.54;100.00;94515.97;1023095;28;20035;-70
2024/03/29 01:55:48;;;;;;;1.45;0.50;;;;;;;2.58;100.00;94522.25;1026719;28;20049;-69
2024/03/29 01:56:20;;;;;;;1.80;0.50;;;;;;;2.56;100.00;94521.69;1026491;28;20030;-70
2024/03/29 01:56:51;;;;;;;1.23;0.45;;;;;;;2.59;100.00;94528.97;1034356;28;20408;-70
2024/03/29 01:57:22;;;;;;;1.85;0.52;;;;;;;2.60;100.00;94522.75;1030975;28;20277;-69
2024/03/29 01:57:52;;;;;;;0.60;0.47;;;;;;;2.57;100.00;94520.66;1027014;28;20090;-69
2024/03/29 01:58:23;;;;;;;1.02;0.60;;;;;;;2.58;100.00;94521.44;1023033;29;20012;-69
2024/03/29 01:58:53;;;;;;;0.95;0.52;;;;;;;2.54;100.00;94510.78;1022149;28;20031;-70
2024/03/29 01:59:24;;;;;;;0.35;0.35;;;;;;;2.59;100.00;94518.63;1023103;29;20023;-70
2024/03/29 01:59:54;;;;;;;0.52;0.43;;;;;;;2.55;100.00;94507.19;1018843;29;20043;-70
2024/03/29 02:00:25;;;;;;;0.95;0.52;;;;;;;2.60;100.00;94520.16;1031813;28;20030;-69
2024/03/29 02:00:57;;;;;;;1.63;0.40;;;;;;;2.62;100.00;94517.34;1030785;28;20519;-70
2024/03/29 02:01:28;;;;;;;0.52;0.35;;;;;;;2.64;100.00;94519.69;1026994;28;20479;-70
2024/03/29 02:01:58;;;;;;;1.23;0.40;;;;;;;2.59;100.00;94503.09;1026555;28;20266;-68
2024/03/29 02:02:29;;;;;;;0.47;0.30;;;;;;;2.62;100.00;94506.22;1026727;28;20023;-70
2024/03/29 02:02:59;;;;;;;1.13;0.60;;;;;;;2.66;100.00;94507.28;1026671;28;20031;-70
2024/03/29 02:03:30;;;;;;;0.40;0.32;;;;;;;2.66;100.00;94502.91;1026981;28;20023;-70
2024/03/29 02:04:00;;;;;;;1.88;0.50;;;;;;;2.68;100.00;94502.63;1022559;28;20098;-70
2024/03/29 02:04:30;;;;;;;0.90;0.30;;;;;;;2.69;100.00;94501.63;1026894;28;20035;-70
2024/03/29 02:05:01;;;;;;;0.68;0.40;;;;;;;2.70;100.00;94503.19;1034732;28;20038;-70
2024/03/29 02:05:31;;;;;;;1.00;0.50;;;;;;;2.71;100.00;94512.50;1034618;28;20036;-70
2024/03/29 02:06:03;;;;;;;0.70;0.30;;;;;;;2.72;100.00;94514.09;1023040;28;20035;-70
2024/03/29 02:06:34;;;;;;;0.65;0.55;;;;;;;2.73;100.00;94515.66;1034689;28;20058;-70
2024/03/29 02:07:04;;;;;;;0.82;0.40;;;;;;;2.74;100.00;94522.38;1034967;28;20863;-70
2024/03/29 02:07:36;;;;;;;0.52;0.40;;;;;;;2.75;100.00;94523.94;1039498;28;20921;-70
2024/03/29 02:08:07;;;;;;;1.15;0.40;;;;;;;2.80;100.00;94522.19;1038444;28;20433;-69
2024/03/29 02:08:37;;;;;;;1.38;0.52;;;;;;;2.79;100.00;94517.28;1030398;28;20269;-68
2024/03/29 02:09:08;;;;;;;0.30;0.30;;;;;;;2.86;100.00;94525.63;1022738;28;20327;-70
2024/03/29 02:09:38;;;;;;;0.95;0.40;;;;;;;2.84;100.00;94523.28;1022766;28;20062;-70
2024/03/29 02:10:10;;;;;;;0.68;0.40;;;;;;;2.64;100.00;94486.03;1027013;28;20034;-70
2024/03/29 02:10:40;;;;;;;0.30;0.30;;;;;;;2.84;100.00;94525.09;1026955;28;20514;-69
2024/03/29 02:11:11;;;;;;;0.93;0.30;;;;;;;2.82;100.00;94519.38;1030667;28;20272;-70
2024/03/29 02:11:41;;;;;;;1.95;0.47;;;;;;;2.77;100.00;94508.94;1023891;29;20035;-70
2024/03/29 02:12:12;;;;;;;1.48;0.60;;;;;;;2.80;100.00;94516.25;1035399;28;20529;-69
2024/03/29 02:12:42;;;;;;;0.90;0.50;;;;;;;2.82;100.00;94521.97;1035321;28;20033;-71
2024/03/29 02:13:13;;;;;;;0.75;0.45;;;;;;;2.78;100.00;94521.69;1035171;28;20030;-70
2024/03/29 02:13:43;;;;;;;0.30;0.30;;;;;;;2.77;100.00;94522.69;1035149;28;20057;-70
2024/03/29 02:14:14;;;;;;;0.40;0.30;;;;;;;2.77;100.00;94524.50;1027328;28;20030;-70
2024/03/29 02:14:44;;;;;;;0.63;0.50;;;;;;;2.78;100.00;94523.47;1030742;28;20031;-69
2024/03/29 02:15:16;;;;;;;0.90;0.47;;;;;;;2.76;100.00;94522.94;1030718;28;20034;-70
2024/03/29 02:15:46;;;;;;;1.00;0.45;;;;;;;2.76;100.00;94522.94;1035802;28;20033;-69
2024/03/29 02:16:17;;;;;;;0.32;0.30;;;;;;;2.72;100.00;94527.81;1039647;28;20263;-70
2024/03/29 02:16:47;;;;;;;1.33;0.50;;;;;;;2.68;100.00;94525.94;1035825;28;20633;-70
2024/03/29 02:17:18;;;;;;;0.80;0.45;;;;;;;2.70;100.00;94539.44;1027285;28;20137;-69
2024/03/29 02:17:48;;;;;;;3.70;0.60;;;;;;;2.69;100.00;94535.28;1031458;28;20019;-70
2024/03/29 02:18:19;;;;;;;0.85;0.47;;;;;;;2.69;100.00;94538.66;1031740;28;20029;-70
2024/03/29 02:18:49;;;;;;;1.20;0.30;;;;;;;2.68;100.00;94537.06;1029535;28;20023;-69
2024/03/29 02:19:19;;;;;;;0.50;0.43;;;;;;;2.67;100.00;94534.75;1039276;28;20018;-70
2024/03/29 02:19:50;;;;;;;0.43;0.38;;;;;;;2.62;100.00;94526.94;1032862;28;20022;-70
2024/03/29 02:20:21;;;;;;;0.60;0.30;;;;;;;2.64;100.00;94536.00;1032246;28;20029;-70
2024/03/29 02:20:51;;;;;;;0.60;0.30;;;;;;;2.63;100.00;94528.50;1036717;28;20014;-70
2024/03/29 02:21:22;;;;;;;0.30;0.30;;;;;;;2.62;100.00;94537.28;1038700;28;20033;-69
2024/03/29 02:21:52;;;;;;;0.60;0.50;;;;;;;2.58;100.00;94535.19;1035524;28;20025;-69
2024/03/29 02:22:23;;;;;;;3.55;0.70;;;;;;;2.56;100.00;94529.44;1031493;28;20026;-69
2024/03/29 02:22:55;;;;;;;0.88;0.50;;;;;;;2.48;100.00;94516.94;1030866;28;20014;-70
2024/03/29 02:23:26;;;;;;;0.75;0.40;;;;;;;2.52;100.00;94528.38;1025923;28;20258;-68
2024/03/29 02:24:16;;;;;;;1.10;0.63;;;;;;;2.49;100.00;94528.88;1024576;28;20727;-70
2024/03/29 02:24:46;;;;;;;0.40;0.30;;;;;;;2.45;100.00;94527.78;1030753;28;20265;-70